ADDS METAR Data INFO
IDs: Format: Raw Decoded Include TAF

Data at: 0747 UTC 20 Feb 2018

KT20 200735Z AUTO 16013G21KT 10SM OVC017 23/20 A2988 RMK AO2 T02270202
KT20 200715Z AUTO 16013G23KT 10SM OVC017 23/20 A2988 RMK AO2 T02300203
KT20 200655Z AUTO 16015G22KT 10SM BKN017 OVC023 23/20 A2989 RMK AO2 T02290203
KT20 200635Z AUTO 16016G21KT 10SM BKN017 OVC023 23/21 A2988 RMK AO2 T02300205
KT20 200615Z AUTO 16014G22KT 10SM BKN016 OVC022 23/21 A2987 RMK AO2 T02300205
KT20 200555Z AUTO 15016G23KT 10SM BKN022 BKN029 OVC036 23/21 A2988 RMK AO2 T02320205 10241 20231 402690215
KT20 200535Z AUTO 16015G22KT 10SM BKN020 BKN026 OVC036 23/21 A2989 RMK AO2 T02320205
KT20 200515Z AUTO 16015G19KT 10SM BKN020 BKN026 OVC032 23/21 A2989 RMK AO2 T02310206
KT20 200455Z AUTO 16014G20KT 10SM BKN018 OVC025 23/21 A2989 RMK AO2 T02310206
KT20 200435Z AUTO 16016G21KT 10SM BKN016 OVC022 23/21 A2988 RMK AO2 T02310206
KT20 200415Z AUTO 16016G22KT 10SM BKN019 OVC024 23/21 A2987 RMK AO2 T02320206
KT20 200355Z AUTO 15015G21KT 10SM BKN017 OVC025 23/21 A2987 RMK AO2 T02320206
KT20 200335Z AUTO 16013G21KT 10SM BKN019 OVC024 23/21 A2987 RMK AO2 T02320205
KT20 200315Z AUTO 16012G22KT 10SM BKN018 OVC024 23/21 A2987 RMK AO2 T02320205
KT20 200255Z AUTO 15014G22KT 10SM BKN018 OVC024 23/20 A2987 RMK AO2 T02320204
KT20 200235Z AUTO 15017G21KT 10SM BKN020 OVC025 23/21 A2987 RMK AO2 T02310205
KT20 200215Z AUTO 16016G22KT 10SM OVC019 23/20 A2986 RMK AO2 T02320204
KT20 200155Z AUTO 15015G24KT 10SM OVC018 23/21 A2986 RMK AO2 T02320205
KT20 200135Z AUTO 15014G20KT 10SM OVC020 23/20 A2986 RMK AO2 T02330204
KT20 200115Z AUTO 15016G20KT 10SM BKN022 OVC030 24/20 A2985 RMK AO2 T02350202
KT20 200055Z AUTO 15012G19KT 10SM OVC022 24/20 A2985 RMK AO2 T02360201
KT20 200035Z AUTO 15012G17KT 10SM OVC022 24/20 A2986 RMK AO2 T02380201
KT20 200015Z AUTO 15009G19KT 10SM SCT024 BKN030 OVC037 24/20 A2985 RMK AO2 T02410199
KT20 192355Z AUTO 15016G23KT 10SM BKN032 OVC038 24/20 A2985 RMK AO2 T02410197 10269 20241
KT20 192335Z AUTO 15014G22KT 10SM OVC037 24/20 A2985 RMK AO2 T02430195
KT20 192315Z AUTO 15016G22KT 10SM BKN035 25/20 A2985 RMK AO2 T02450196
KT20 192255Z AUTO 15016G24KT 10SM SCT026 OVC037 25/20 A2984 RMK AO2 T02450196
KT20 192235Z AUTO 15020G24KT 10SM BKN026 OVC031 25/20 A2984 RMK AO2 T02460196
KT20 192215Z AUTO 15017G23KT 10SM OVC026 25/20 A2984 RMK AO2 T02460195
KT20 192155Z AUTO 15013G20KT 10SM OVC029 25/20 A2984 RMK AO2 T02510195
KT20 192135Z AUTO 17019G28KT 10SM OVC031 26/19 A2984 RMK AO2 T02550192
KT20 192115Z AUTO 16016G23KT 10SM OVC031 26/19 A2984 RMK AO2 T02550192
KT20 192055Z AUTO 16016G27KT 10SM OVC029 26/19 A2985 RMK AO2 T02570191
KT20 192035Z AUTO 18021G31KT 10SM BKN027 BKN034 OVC046 26/19 A2986 RMK AO2 T02620191
KT20 192015Z AUTO 17019G28KT 10SM SCT027 BKN033 OVC070 26/20 A2986 RMK AO2 T02610196
KT20 191955Z AUTO 17019G28KT 10SM SCT027 BKN033 OVC070 27/20 A2987 RMK AO2 T02670202
KT20 191935Z AUTO 18016G24KT 10SM SCT028 BKN032 OVC042 26/20 A2988 RMK AO2 T02600198
KT20 191915Z AUTO 17016G30KT 10SM BKN028 BKN042 OVC055 26/20 A2988 RMK AO2 T02620197
KT20 191855Z AUTO 17020G27KT 10SM BKN028 OVC036 27/20 A2989 RMK AO2 T02650196
KT20 191835Z AUTO 17019G24KT 10SM BKN028 OVC034 26/20 A2990 RMK AO2 T02620196
KT20 191815Z AUTO 18017G23KT 10SM BKN028 OVC037 26/20 A2991 RMK AO2 T02560195
KT20 191755Z AUTO 19017G25KT 10SM BKN028 OVC036 25/19 A2992 RMK AO2 T02530193 10260 20215
KT20 191735Z AUTO 18015G27KT 10SM OVC028 26/19 A2993 RMK AO2 T02560192
KT20 191715Z AUTO 17016G20KT 10SM OVC028 25/19 A2994 RMK AO2 T02510192
KT20 191655Z AUTO 17019G33KT 10SM BKN028 OVC034 25/19 A2994 RMK AO2 T02510190
KT20 191635Z AUTO 17018G28KT 10SM BKN026 OVC036 25/19 A2995 RMK AO2 T02490188
KT20 191615Z AUTO 17019G27KT 10SM BKN024 OVC030 24/19 A2995 RMK AO2 T02430185
KT20 191555Z AUTO 17018G24KT 10SM OVC023 24/19 A2994 RMK AO2 T02430191
KT20 191535Z AUTO 17017G25KT 10SM BKN021 OVC028 24/19 A2995 RMK AO2 T02360192
KT20 191515Z AUTO 17016G23KT 10SM OVC018 23/20 A2995 RMK AO2 T02320196
KT20 191455Z AUTO 17017G23KT 10SM OVC016 23/20 A2995 RMK AO2 T02260195
KT20 191435Z AUTO 17012G19KT 10SM OVC016 23/20 A2994 RMK AO2 T02250196
KT20 191415Z AUTO 17011G22KT 10SM OVC018 22/20 A2993 RMK AO2 T02210196
KT20 191355Z AUTO 17012G17KT 10SM OVC018 22/20 A2993 RMK AO2 T02200196
KT20 191335Z AUTO 17012G16KT 10SM BKN018 OVC023 22/20 A2994 RMK AO2 T02180197
KT20 191315Z AUTO 17013KT 10SM BKN018 OVC023 22/20 A2993 RMK AO2 T02160198
KT20 191255Z AUTO 17013G18KT 10SM SCT019 BKN025 22/20 A2993 RMK AO2 T02150198
KT20 191235Z AUTO 17010KT 10SM BKN019 BKN027 22/20 A2992 RMK AO2 T02150198
KT20 191215Z AUTO 17012G16KT 10SM SCT019 BKN023 OVC032 22/20 A2992 RMK AO2 T02150198
KT20 191155Z AUTO 17011G15KT 10SM SCT019 BKN027 OVC033 22/20 A2992 RMK AO2 70001 T02180197 10222 20215
KT20 191135Z AUTO 17010G14KT 10SM SCT017 BKN023 OVC029 22/20 A2993 RMK AO2 T02200200
KT20 191115Z AUTO 18010G16KT 10SM BKN017 BKN025 OVC033 22/20 A2993 RMK AO2 T02200200
KT20 191055Z AUTO 18011G18KT 10SM BKN017 OVC029 22/20 A2992 RMK AO2 T02200201
KT20 191035Z AUTO 17013G16KT 10SM OVC017 22/20 A2992 RMK AO2 T02200200
KT20 191015Z AUTO 18013G20KT 10SM OVC017 22/20 A2992 RMK AO2 T02220200
KT20 190955Z AUTO 18013G18KT 10SM BKN017 OVC022 22/20 A2992 RMK AO2 T02220201
KT20 190935Z AUTO 17011KT 10SM OVC017 22/20 A2991 RMK AO2 T02220201
KT20 190915Z AUTO 17013G16KT 10SM BKN017 OVC022 22/20 A2991 RMK AO2 T02210200
KT20 190855Z AUTO 17013G19KT 10SM BKN017 OVC022 22/20 A2991 RMK AO2 T02210200
KT20 190835Z AUTO 18011G18KT 10SM OVC017 22/20 A2992 RMK AO2 T02210200
KT20 190815Z AUTO 17010G19KT 10SM OVC017 22/20 A2992 RMK AO2 T02200199
KT20 190755Z AUTO 17013G18KT 10SM OVC017 22/20 A2991 RMK AO2 T02200198
KT20 190735Z AUTO 17013G18KT 10SM OVC015 22/20 A2992 RMK AO2 T02180198
KT20 190715Z AUTO 17012G17KT 10SM OVC015 22/20 A2992 RMK AO2 T02170198
KT20 190655Z AUTO 16011G17KT 10SM OVC015 22/20 A2992 RMK AO2 T02160197
KT20 190635Z AUTO 17012G19KT 10SM OVC015 22/20 A2992 RMK AO2 T02160196
KT20 190615Z AUTO 17012G17KT 10SM OVC017 22/20 A2992 RMK AO2 T02150197
KT20 190555Z AUTO 16015G19KT 10SM OVC017 22/20 A2993 RMK AO2 T02150196 10250 20203 402760125
KT20 190535Z AUTO 16014G22KT 10SM BKN017 OVC022 22/20 A2993 RMK AO2 T02150197
KT20 190515Z AUTO 16014G22KT 10SM OVC019 21/20 A2993 RMK AO2 T02120196
KT20 190455Z AUTO 16014G20KT 10SM SCT015 OVC021 21/20 A2994 RMK AO2 T02110197
KT20 190435Z AUTO 16013G19KT 10SM BKN014 OVC020 21/20 A2995 RMK AO2 T02100197
KT20 190415Z AUTO 15012G19KT 10SM OVC014 21/20 A2996 RMK AO2 T02080197
KT20 190355Z AUTO 15016G20KT 10SM OVC012 21/20 A2996 RMK AO2 T02060195
KT20 190335Z AUTO 15013G20KT 10SM OVC012 21/20 A2996 RMK AO2 T02050195
KT20 190315Z AUTO 15012G16KT 10SM BKN012 20/19 A2996 RMK AO2 T02030192
KT20 190255Z AUTO 16013G19KT 10SM SCT012 21/19 A2996 RMK AO2 T02050190
KT20 190235Z AUTO 15013G19KT 10SM CLR 21/19 A2996 RMK AO2 T02070189
KT20 190215Z AUTO 14012KT 10SM CLR 21/19 A2996 RMK AO2 T02100187
KT20 190155Z AUTO 15013G18KT 10SM CLR 21/19 A2996 RMK AO2 T02130187
KT20 190135Z AUTO 15014G19KT 10SM CLR 22/19 A2995 RMK AO2 T02170187
KT20 190115Z AUTO 15010KT 10SM CLR 23/18 A2995 RMK AO2 T02250177
KT20 190055Z AUTO 15014G19KT 10SM CLR 23/18 A2994 RMK AO2 T02310175
KT20 190035Z AUTO 15011G19KT 10SM SCT080 24/17 A2994 RMK AO2 T02360172
KT20 190015Z AUTO 15015G23KT 10SM SCT080 24/17 A2993 RMK AO2 T02440168
KT20 182355Z AUTO 16012G17KT 10SM SCT080 25/17 A2993 RMK AO2 T02500168 10276 20171
KT20 182335Z AUTO 15016G22KT 10SM SCT070 26/17 A2994 RMK AO2 T02560168
KT20 182315Z AUTO 16013G26KT 10SM SCT080 26/17 A2994 RMK AO2 T02600167
KT20 182255Z AUTO 16020G26KT 10SM CLR 26/17 A2994 RMK AO2 T02620170
KT20 182235Z AUTO 16015G20KT 10SM SCT043 SCT050 26/18 A2994 RMK AO2 T02640176
KT20 182215Z AUTO 15011G20KT 10SM SCT042 BKN060 BKN070 27/18 A2994 RMK AO2 T02650180
KT20 182155Z AUTO 16010G24KT 10SM SCT043 SCT050 SCT070 27/18 A2995 RMK AO2 T02690182
KT20 182135Z AUTO 16013G22KT 10SM SCT038 BKN043 BKN050 27/18 A2995 RMK AO2 T02710181
KT20 182115Z AUTO 15012G15KT 10SM SCT038 BKN049 BKN060 26/19 A2996 RMK AO2 T02600185
KT20 182055Z AUTO 16010KT 10SM SCT032 SCT050 SCT060 26/19 A2997 RMK AO2 T02630185
KT20 182035Z AUTO 16012KT 10SM SCT028 SCT035 27/19 A2998 RMK AO2 T02680192
KT20 182015Z AUTO 16008KT 10SM SCT018 SCT026 SCT039 26/19 A2999 RMK AO2 T02580190
KT20 181955Z AUTO 17009G16KT 10SM BKN016 25/19 A3001 RMK AO2 T02460194